sensor_id;sensor_type;location;lat;lon;timestamp;temperature;humidity
40952;DHT22;26682;51.660;19.338;2023-03-23T00:00:00;9.50;99.90
40952;DHT22;26682;51.660;19.338;2023-03-23T00:02:42;9.60;99.90
40952;DHT22;26682;51.660;19.338;2023-03-23T00:05:24;9.50;99.90
40952;DHT22;26682;51.660;19.338;2023-03-23T00:08:05;9.60;99.90
40952;DHT22;26682;51.660;19.338;2023-03-23T00:10:50;9.70;99.90
40952;DHT22;26682;51.660;19.338;2023-03-23T00:13:37;9.60;97.80
40952;DHT22;26682;51.660;19.338;2023-03-23T00:16:23;9.70;95.10
40952;DHT22;26682;51.660;19.338;2023-03-23T00:19:12;9.60;87.90
40952;DHT22;26682;51.660;19.338;2023-03-23T00:21:54;9.60;84.50
40952;DHT22;26682;51.660;19.338;2023-03-23T00:24:35;9.60;91.20
40952;DHT22;26682;51.660;19.338;2023-03-23T00:27:18;9.60;87.60
40952;DHT22;26682;51.660;19.338;2023-03-23T00:30:00;9.60;76.90
40952;DHT22;26682;51.660;19.338;2023-03-23T00:32:41;9.60;79.90
40952;DHT22;26682;51.660;19.338;2023-03-23T00:35:24;9.60;74.20
40952;DHT22;26682;51.660;19.338;2023-03-23T00:38:05;9.60;65.00
40952;DHT22;26682;51.660;19.338;2023-03-23T00:40:46;9.60;73.90
40952;DHT22;26682;51.660;19.338;2023-03-23T00:43:31;9.60;78.20
40952;DHT22;26682;51.660;19.338;2023-03-23T00:46:12;9.50;71.20
40952;DHT22;26682;51.660;19.338;2023-03-23T00:48:55;9.60;77.30
40952;DHT22;26682;51.660;19.338;2023-03-23T00:51:38;9.60;72.90
40952;DHT22;26682;51.660;19.338;2023-03-23T00:54:20;9.60;75.50
40952;DHT22;26682;51.660;19.338;2023-03-23T00:57:04;9.50;81.40
40952;DHT22;26682;51.660;19.338;2023-03-23T00:59:47;9.50;86.50
40952;DHT22;26682;51.660;19.338;2023-03-23T01:02:29;9.60;85.20
40952;DHT22;26682;51.660;19.338;2023-03-23T01:05:11;9.60;75.80
40952;DHT22;26682;51.660;19.338;2023-03-23T01:07:53;9.60;78.70
40952;DHT22;26682;51.660;19.338;2023-03-23T01:10:34;9.60;71.80
40952;DHT22;26682;51.660;19.338;2023-03-23T01:13:19;9.50;75.30
40952;DHT22;26682;51.660;19.338;2023-03-23T01:16:03;9.50;70.20
40952;DHT22;26682;51.660;19.338;2023-03-23T01:18:44;9.50;70.30
40952;DHT22;26682;51.660;19.338;2023-03-23T01:21:26;9.50;77.00
40952;DHT22;26682;51.660;19.338;2023-03-23T01:24:07;9.50;66.40
40952;DHT22;26682;51.660;19.338;2023-03-23T01:26:49;9.50;59.30
40952;DHT22;26682;51.660;19.338;2023-03-23T01:29:30;9.60;50.50
40952;DHT22;26682;51.660;19.338;2023-03-23T01:32:11;9.60;46.20
40952;DHT22;26682;51.660;19.338;2023-03-23T01:34:54;9.50;40.30
40952;DHT22;26682;51.660;19.338;2023-03-23T01:37:35;9.50;39.90
40952;DHT22;26682;51.660;19.338;2023-03-23T01:40:18;9.50;48.80
40952;DHT22;26682;51.660;19.338;2023-03-23T01:42:59;9.40;55.10
40952;DHT22;26682;51.660;19.338;2023-03-23T01:45:42;9.40;58.80
40952;DHT22;26682;51.660;19.338;2023-03-23T01:48:35;9.40;60.60
40952;DHT22;26682;51.660;19.338;2023-03-23T01:51:19;9.40;59.90
40952;DHT22;26682;51.660;19.338;2023-03-23T01:54:07;9.40;59.70
40952;DHT22;26682;51.660;19.338;2023-03-23T01:57:16;9.40;58.00
40952;DHT22;26682;51.660;19.338;2023-03-23T02:00:03;9.30;68.60
40952;DHT22;26682;51.660;19.338;2023-03-23T02:02:56;9.30;67.80
40952;DHT22;26682;51.660;19.338;2023-03-23T02:05:40;9.30;65.10
40952;DHT22;26682;51.660;19.338;2023-03-23T02:08:40;9.20;86.70
40952;DHT22;26682;51.660;19.338;2023-03-23T02:11:22;9.20;90.90
40952;DHT22;26682;51.660;19.338;2023-03-23T02:14:03;9.20;89.80
40952;DHT22;26682;51.660;19.338;2023-03-23T02:17:23;9.20;96.50
40952;DHT22;26682;51.660;19.338;2023-03-23T02:35:19;9.10;97.40
40952;DHT22;26682;51.660;19.338;2023-03-23T02:38:11;9.10;97.00
40952;DHT22;26682;51.660;19.338;2023-03-23T02:40:54;9.10;95.10
40952;DHT22;26682;51.660;19.338;2023-03-23T02:43:43;9.10;91.70
40952;DHT22;26682;51.660;19.338;2023-03-23T02:46:26;9.10;91.60
40952;DHT22;26682;51.660;19.338;2023-03-23T02:49:12;9.00;93.40
40952;DHT22;26682;51.660;19.338;2023-03-23T02:51:54;9.00;96.90
40952;DHT22;26682;51.660;19.338;2023-03-23T02:54:38;9.00;97.60
40952;DHT22;26682;51.660;19.338;2023-03-23T02:57:20;8.90;94.40
40952;DHT22;26682;51.660;19.338;2023-03-23T03:00:05;8.90;95.90
40952;DHT22;26682;51.660;19.338;2023-03-23T03:02:53;8.80;97.80
40952;DHT22;26682;51.660;19.338;2023-03-23T03:12:10;8.70;99.90
40952;DHT22;26682;51.660;19.338;2023-03-23T03:18:21;8.70;99.90
40952;DHT22;26682;51.660;19.338;2023-03-23T03:21:09;8.60;99.90
40952;DHT22;26682;51.660;19.338;2023-03-23T03:23:57;8.70;99.90
40952;DHT22;26682;51.660;19.338;2023-03-23T03:26:45;8.60;99.90
40952;DHT22;26682;51.660;19.338;2023-03-23T03:29:40;8.60;99.90
40952;DHT22;26682;51.660;19.338;2023-03-23T03:32:31;8.60;99.90
40952;DHT22;26682;51.660;19.338;2023-03-23T03:35:15;8.60;99.90
40952;DHT22;26682;51.660;19.338;2023-03-23T03:37:56;8.50;99.90
40952;DHT22;26682;51.660;19.338;2023-03-23T03:40:39;8.50;99.90
40952;DHT22;26682;51.660;19.338;2023-03-23T03:43:20;8.50;99.90
40952;DHT22;26682;51.660;19.338;2023-03-23T03:46:02;8.50;99.90
40952;DHT22;26682;51.660;19.338;2023-03-23T03:48:43;8.50;99.90
40952;DHT22;26682;51.660;19.338;2023-03-23T03:51:27;8.50;99.90
40952;DHT22;26682;51.660;19.338;2023-03-23T03:54:09;8.50;99.90
40952;DHT22;26682;51.660;19.338;2023-03-23T03:56:52;8.50;99.90
40952;DHT22;26682;51.660;19.338;2023-03-23T03:59:57;8.60;99.90
40952;DHT22;26682;51.660;19.338;2023-03-23T04:02:56;8.60;99.90
40952;DHT22;26682;51.660;19.338;2023-03-23T04:06:11;8.60;99.90
40952;DHT22;26682;51.660;19.338;2023-03-23T04:08:55;8.60;99.90
40952;DHT22;26682;51.660;19.338;2023-03-23T04:11:37;8.60;99.90
40952;DHT22;26682;51.660;19.338;2023-03-23T04:14:41;8.70;99.90
40952;DHT22;26682;51.660;19.338;2023-03-23T04:17:22;8.70;99.90
40952;DHT22;26682;51.660;19.338;2023-03-23T04:20:08;8.70;99.90
40952;DHT22;26682;51.660;19.338;2023-03-23T04:22:54;8.70;99.90
40952;DHT22;26682;51.660;19.338;2023-03-23T04:25:38;8.80;99.90
40952;DHT22;26682;51.660;19.338;2023-03-23T04:28:23;8.80;99.90
40952;DHT22;26682;51.660;19.338;2023-03-23T04:31:28;8.80;99.90
40952;DHT22;26682;51.660;19.338;2023-03-23T04:34:18;8.80;99.90
40952;DHT22;26682;51.660;19.338;2023-03-23T04:37:02;8.80;99.90
40952;DHT22;26682;51.660;19.338;2023-03-23T04:39:46;8.80;99.90
40952;DHT22;26682;51.660;19.338;2023-03-23T04:42:30;8.70;99.90
40952;DHT22;26682;51.660;19.338;2023-03-23T04:45:30;8.70;99.90
40952;DHT22;26682;51.660;19.338;2023-03-23T04:48:14;8.80;99.90
40952;DHT22;26682;51.660;19.338;2023-03-23T04:51:07;8.80;99.90
40952;DHT22;26682;51.660;19.338;2023-03-23T04:53:50;8.80;99.90
40952;DHT22;26682;51.660;19.338;2023-03-23T04:56:31;8.80;99.90
40952;DHT22;26682;51.660;19.338;2023-03-23T04:59:22;8.80;99.90
40952;DHT22;26682;51.660;19.338;2023-03-23T05:02:29;8.80;99.90
40952;DHT22;26682;51.660;19.338;2023-03-23T05:05:14;8.80;99.90
40952;DHT22;26682;51.660;19.338;2023-03-23T05:07:56;8.90;99.90
40952;DHT22;26682;51.660;19.338;2023-03-23T05:10:41;8.90;99.90
40952;DHT22;26682;51.660;19.338;2023-03-23T05:13:28;8.90;99.90
40952;DHT22;26682;51.660;19.338;2023-03-23T05:16:13;8.90;99.90
40952;DHT22;26682;51.660;19.338;2023-03-23T05:18:56;9.00;99.90
40952;DHT22;26682;51.660;19.338;2023-03-23T05:21:39;9.00;99.90
40952;DHT22;26682;51.660;19.338;2023-03-23T05:24:20;9.10;99.90
40952;DHT22;26682;51.660;19.338;2023-03-23T05:27:03;9.20;99.90
40952;DHT22;26682;51.660;19.338;2023-03-23T05:29:48;9.20;90.60
40952;DHT22;26682;51.660;19.338;2023-03-23T05:32:30;9.30;67.20
40952;DHT22;26682;51.660;19.338;2023-03-23T05:35:20;9.40;45.90
40952;DHT22;26682;51.660;19.338;2023-03-23T05:38:04;9.40;33.80
40952;DHT22;26682;51.660;19.338;2023-03-23T05:40:46;9.50;33.00
40952;DHT22;26682;51.660;19.338;2023-03-23T05:43:31;9.50;32.70
40952;DHT22;26682;51.660;19.338;2023-03-23T05:46:22;9.60;1.00
40952;DHT22;26682;51.660;19.338;2023-03-23T05:49:05;9.60;1.00
40952;DHT22;26682;51.660;19.338;2023-03-23T05:51:52;9.60;1.00
40952;DHT22;26682;51.660;19.338;2023-03-23T05:54:34;9.60;1.00
40952;DHT22;26682;51.660;19.338;2023-03-23T05:57:17;9.70;1.00
40952;DHT22;26682;51.660;19.338;2023-03-23T06:00:03;9.70;1.00
40952;DHT22;26682;51.660;19.338;2023-03-23T06:03:12;9.70;1.00
40952;DHT22;26682;51.660;19.338;2023-03-23T06:06:20;9.70;1.00
40952;DHT22;26682;51.660;19.338;2023-03-23T06:09:18;9.80;1.00
40952;DHT22;26682;51.660;19.338;2023-03-23T06:12:23;9.80;1.00
40952;DHT22;26682;51.660;19.338;2023-03-23T06:15:27;9.80;1.00
40952;DHT22;26682;51.660;19.338;2023-03-23T06:18:15;9.80;1.00
40952;DHT22;26682;51.660;19.338;2023-03-23T06:21:20;9.80;1.00
40952;DHT22;26682;51.660;19.338;2023-03-23T06:24:27;9.90;1.00
40952;DHT22;26682;51.660;19.338;2023-03-23T06:27:08;9.90;1.00
40952;DHT22;26682;51.660;19.338;2023-03-23T06:29:50;10.00;1.00
40952;DHT22;26682;51.660;19.338;2023-03-23T06:32:32;10.00;1.00
40952;DHT22;26682;51.660;19.338;2023-03-23T06:35:15;10.10;1.00
40952;DHT22;26682;51.660;19.338;2023-03-23T06:38:09;10.20;1.00
40952;DHT22;26682;51.660;19.338;2023-03-23T06:40:58;10.30;1.00
40952;DHT22;26682;51.660;19.338;2023-03-23T06:43:41;10.30;1.00
40952;DHT22;26682;51.660;19.338;2023-03-23T06:46:32;10.40;1.00
40952;DHT22;26682;51.660;19.338;2023-03-23T06:49:36;10.50;1.00
40952;DHT22;26682;51.660;19.338;2023-03-23T06:52:30;10.60;1.00
40952;DHT22;26682;51.660;19.338;2023-03-23T06:55:13;10.70;99.90
40952;DHT22;26682;51.660;19.338;2023-03-23T06:57:54;10.80;99.90
40952;DHT22;26682;51.660;19.338;2023-03-23T07:00:36;10.90;99.90
40952;DHT22;26682;51.660;19.338;2023-03-23T07:03:18;11.10;99.90
40952;DHT22;26682;51.660;19.338;2023-03-23T07:06:00;11.30;99.90
40952;DHT22;26682;51.660;19.338;2023-03-23T07:08:47;11.50;99.90
40952;DHT22;26682;51.660;19.338;2023-03-23T07:11:33;11.60;99.90
40952;DHT22;26682;51.660;19.338;2023-03-23T07:14:20;11.70;99.90
40952;DHT22;26682;51.660;19.338;2023-03-23T07:17:03;11.80;99.90
40952;DHT22;26682;51.660;19.338;2023-03-23T07:19:48;12.00;99.90
40952;DHT22;26682;51.660;19.338;2023-03-23T07:22:31;12.20;99.90
40952;DHT22;26682;51.660;19.338;2023-03-23T07:25:21;12.40;99.90
40952;DHT22;26682;51.660;19.338;2023-03-23T07:28:05;12.60;99.90
40952;DHT22;26682;51.660;19.338;2023-03-23T07:30:47;12.90;90.30
40952;DHT22;26682;51.660;19.338;2023-03-23T07:33:28;13.40;57.40
40952;DHT22;26682;51.660;19.338;2023-03-23T07:36:12;13.60;12.90
40952;DHT22;26682;51.660;19.338;2023-03-23T07:38:53;13.70;1.00
40952;DHT22;26682;51.660;19.338;2023-03-23T07:41:35;13.80;1.00
40952;DHT22;26682;51.660;19.338;2023-03-23T07:44:31;14.00;1.00
40952;DHT22;26682;51.660;19.338;2023-03-23T07:47:13;14.20;1.00
40952;DHT22;26682;51.660;19.338;2023-03-23T07:49:59;14.30;1.00
40952;DHT22;26682;51.660;19.338;2023-03-23T07:52:47;14.40;99.90
40952;DHT22;26682;51.660;19.338;2023-03-23T07:55:32;14.40;99.90
40952;DHT22;26682;51.660;19.338;2023-03-23T07:58:26;14.50;99.90
40952;DHT22;26682;51.660;19.338;2023-03-23T08:01:10;14.50;99.90
40952;DHT22;26682;51.660;19.338;2023-03-23T08:03:52;14.60;99.90
40952;DHT22;26682;51.660;19.338;2023-03-23T08:06:51;14.80;99.90
40952;DHT22;26682;51.660;19.338;2023-03-23T08:09:56;15.20;99.90
40952;DHT22;26682;51.660;19.338;2023-03-23T08:12:57;15.40;99.90
40952;DHT22;26682;51.660;19.338;2023-03-23T08:15:59;15.60;99.90
40952;DHT22;26682;51.660;19.338;2023-03-23T08:19:03;15.80;99.90
40952;DHT22;26682;51.660;19.338;2023-03-23T08:22:04;16.00;99.90
40952;DHT22;26682;51.660;19.338;2023-03-23T08:25:13;16.00;99.90
40952;DHT22;26682;51.660;19.338;2023-03-23T08:28:18;16.00;99.90
40952;DHT22;26682;51.660;19.338;2023-03-23T08:31:25;16.00;99.90
40952;DHT22;26682;51.660;19.338;2023-03-23T08:34:21;16.30;99.90
40952;DHT22;26682;51.660;19.338;2023-03-23T08:37:20;16.40;99.90
40952;DHT22;26682;51.660;19.338;2023-03-23T08:40:24;16.30;99.90
40952;DHT22;26682;51.660;19.338;2023-03-23T08:43:15;16.30;99.90
40952;DHT22;26682;51.660;19.338;2023-03-23T08:46:22;16.30;99.90
40952;DHT22;26682;51.660;19.338;2023-03-23T08:49:30;16.20;99.90
40952;DHT22;26682;51.660;19.338;2023-03-23T08:52:40;16.20;99.90
40952;DHT22;26682;51.660;19.338;2023-03-23T08:55:54;16.10;99.90
40952;DHT22;26682;51.660;19.338;2023-03-23T08:58:55;16.00;99.90
40952;DHT22;26682;51.660;19.338;2023-03-23T09:01:49;16.10;99.90
40952;DHT22;26682;51.660;19.338;2023-03-23T09:04:49;16.40;99.90
40952;DHT22;26682;51.660;19.338;2023-03-23T09:07:51;16.80;99.90
40952;DHT22;26682;51.660;19.338;2023-03-23T09:10:33;17.00;99.90
40952;DHT22;26682;51.660;19.338;2023-03-23T09:13:14;17.30;99.90
40952;DHT22;26682;51.660;19.338;2023-03-23T09:15:56;17.70;99.90
40952;DHT22;26682;51.660;19.338;2023-03-23T09:18:38;17.90;99.90
40952;DHT22;26682;51.660;19.338;2023-03-23T09:21:19;18.00;99.90
40952;DHT22;26682;51.660;19.338;2023-03-23T09:24:01;18.10;99.90
40952;DHT22;26682;51.660;19.338;2023-03-23T09:26:42;18.30;99.90
40952;DHT22;26682;51.660;19.338;2023-03-23T09:29:24;18.40;99.90
40952;DHT22;26682;51.660;19.338;2023-03-23T09:32:06;18.40;99.90
40952;DHT22;26682;51.660;19.338;2023-03-23T09:34:48;18.20;99.90
40952;DHT22;26682;51.660;19.338;2023-03-23T09:37:31;18.30;99.90
40952;DHT22;26682;51.660;19.338;2023-03-23T09:40:15;18.30;99.90
40952;DHT22;26682;51.660;19.338;2023-03-23T09:46:34;18.40;99.90
40952;DHT22;26682;51.660;19.338;2023-03-23T09:49:41;18.40;99.90
40952;DHT22;26682;51.660;19.338;2023-03-23T09:55:17;18.50;99.90
40952;DHT22;26682;51.660;19.338;2023-03-23T09:58:29;18.40;99.90
40952;DHT22;26682;51.660;19.338;2023-03-23T10:04:24;18.30;40.00
40952;DHT22;26682;51.660;19.338;2023-03-23T10:07:17;18.30;70.50
40952;DHT22;26682;51.660;19.338;2023-03-23T10:10:00;18.30;99.90
40952;DHT22;26682;51.660;19.338;2023-03-23T10:13:02;18.40;99.90
40952;DHT22;26682;51.660;19.338;2023-03-23T10:15:45;18.40;99.90
40952;DHT22;26682;51.660;19.338;2023-03-23T10:18:38;18.40;99.90
40952;DHT22;26682;51.660;19.338;2023-03-23T10:21:23;18.50;99.90
40952;DHT22;26682;51.660;19.338;2023-03-23T10:24:09;18.70;99.90
40952;DHT22;26682;51.660;19.338;2023-03-23T10:30:17;19.00;99.90
40952;DHT22;26682;51.660;19.338;2023-03-23T10:35:51;19.00;99.90
40952;DHT22;26682;51.660;19.338;2023-03-23T10:41:38;19.60;99.90
40952;DHT22;26682;51.660;19.338;2023-03-23T10:44:22;19.80;99.90
40952;DHT22;26682;51.660;19.338;2023-03-23T10:47:08;19.90;99.90
40952;DHT22;26682;51.660;19.338;2023-03-23T10:49:59;19.70;99.90
40952;DHT22;26682;51.660;19.338;2023-03-23T10:52:43;19.30;99.90
40952;DHT22;26682;51.660;19.338;2023-03-23T10:55:39;19.20;99.90
40952;DHT22;26682;51.660;19.338;2023-03-23T10:58:25;19.30;99.90
40952;DHT22;26682;51.660;19.338;2023-03-23T11:01:12;19.40;99.90
40952;DHT22;26682;51.660;19.338;2023-03-23T11:03:53;19.20;99.90
40952;DHT22;26682;51.660;19.338;2023-03-23T11:06:35;19.20;99.90
40952;DHT22;26682;51.660;19.338;2023-03-23T11:09:40;19.30;99.90
40952;DHT22;26682;51.660;19.338;2023-03-23T11:12:33;19.10;99.90
40952;DHT22;26682;51.660;19.338;2023-03-23T11:15:32;19.20;99.90
40952;DHT22;26682;51.660;19.338;2023-03-23T11:18:25;18.80;99.90
40952;DHT22;26682;51.660;19.338;2023-03-23T11:21:08;18.80;99.90
40952;DHT22;26682;51.660;19.338;2023-03-23T11:23:58;18.70;99.90
40952;DHT22;26682;51.660;19.338;2023-03-23T11:26:44;18.50;99.90
40952;DHT22;26682;51.660;19.338;2023-03-23T11:29:28;18.60;99.90
40952;DHT22;26682;51.660;19.338;2023-03-23T11:32:15;18.70;99.90
40952;DHT22;26682;51.660;19.338;2023-03-23T11:35:02;18.50;98.90
40952;DHT22;26682;51.660;19.338;2023-03-23T11:37:54;18.40;94.70
40952;DHT22;26682;51.660;19.338;2023-03-23T11:40:46;18.30;98.80
40952;DHT22;26682;51.660;19.338;2023-03-23T11:43:29;18.20;98.60
40952;DHT22;26682;51.660;19.338;2023-03-23T11:46:24;18.20;64.40
40952;DHT22;26682;51.660;19.338;2023-03-23T11:49:25;18.20;60.90
40952;DHT22;26682;51.660;19.338;2023-03-23T11:52:21;18.20;73.10
40952;DHT22;26682;51.660;19.338;2023-03-23T11:57:56;18.10;1.00
40952;DHT22;26682;51.660;19.338;2023-03-23T12:01:04;18.20;1.00
40952;DHT22;26682;51.660;19.338;2023-03-23T12:15:25;17.80;1.00
40952;DHT22;26682;51.660;19.338;2023-03-23T12:30:29;17.30;1.00
40952;DHT22;26682;51.660;19.338;2023-03-23T12:33:33;17.40;1.00
40952;DHT22;26682;51.660;19.338;2023-03-23T12:42:47;17.20;1.00
40952;DHT22;26682;51.660;19.338;2023-03-23T12:48:41;17.30;1.00
40952;DHT22;26682;51.660;19.338;2023-03-23T12:51:37;17.20;99.90
40952;DHT22;26682;51.660;19.338;2023-03-23T12:57:37;17.50;1.00
40952;DHT22;26682;51.660;19.338;2023-03-23T13:00:28;17.50;1.00
40952;DHT22;26682;51.660;19.338;2023-03-23T13:03:40;17.60;1.00
40952;DHT22;26682;51.660;19.338;2023-03-23T13:06:44;17.60;1.00
40952;DHT22;26682;51.660;19.338;2023-03-23T13:09:38;17.70;1.00
40952;DHT22;26682;51.660;19.338;2023-03-23T13:12:21;17.80;1.00
40952;DHT22;26682;51.660;19.338;2023-03-23T13:15:06;17.70;1.00
40952;DHT22;26682;51.660;19.338;2023-03-23T13:18:44;17.70;99.90
40952;DHT22;26682;51.660;19.338;2023-03-23T13:24:08;17.60;1.00
40952;DHT22;26682;51.660;19.338;2023-03-23T13:26:51;17.60;1.00
40952;DHT22;26682;51.660;19.338;2023-03-23T13:29:44;17.60;1.00
40952;DHT22;26682;51.660;19.338;2023-03-23T13:32:31;17.50;1.00
40952;DHT22;26682;51.660;19.338;2023-03-23T13:35:17;17.50;1.00
40952;DHT22;26682;51.660;19.338;2023-03-23T13:37:59;17.40;1.00
40952;DHT22;26682;51.660;19.338;2023-03-23T13:40:43;17.40;1.00
40952;DHT22;26682;51.660;19.338;2023-03-23T13:43:31;17.30;1.00
40952;DHT22;26682;51.660;19.338;2023-03-23T13:49:18;17.10;1.00
40952;DHT22;26682;51.660;19.338;2023-03-23T13:55:42;16.90;99.90
40952;DHT22;26682;51.660;19.338;2023-03-23T13:58:25;16.90;99.90
40952;DHT22;26682;51.660;19.338;2023-03-23T14:01:16;16.90;99.90
40952;DHT22;26682;51.660;19.338;2023-03-23T14:03:59;17.00;99.90
40952;DHT22;26682;51.660;19.338;2023-03-23T14:06:43;16.90;99.90
40952;DHT22;26682;51.660;19.338;2023-03-23T14:09:38;17.00;99.90
40952;DHT22;26682;51.660;19.338;2023-03-23T14:12:26;17.00;99.90
40952;DHT22;26682;51.660;19.338;2023-03-23T14:15:13;17.10;99.90
40952;DHT22;26682;51.660;19.338;2023-03-23T14:17:55;17.10;99.90
40952;DHT22;26682;51.660;19.338;2023-03-23T14:20:37;17.10;99.90
40952;DHT22;26682;51.660;19.338;2023-03-23T14:23:22;17.10;99.90
40952;DHT22;26682;51.660;19.338;2023-03-23T14:26:15;17.00;99.90
40952;DHT22;26682;51.660;19.338;2023-03-23T14:28:59;17.00;99.90
40952;DHT22;26682;51.660;19.338;2023-03-23T14:31:40;16.90;68.80
40952;DHT22;26682;51.660;19.338;2023-03-23T14:34:26;16.90;45.70
40952;DHT22;26682;51.660;19.338;2023-03-23T14:37:13;16.90;76.80
40952;DHT22;26682;51.660;19.338;2023-03-23T14:39:56;16.80;32.90
40952;DHT22;26682;51.660;19.338;2023-03-23T14:42:39;16.80;47.50
40952;DHT22;26682;51.660;19.338;2023-03-23T14:45:22;16.80;27.50
40952;DHT22;26682;51.660;19.338;2023-03-23T14:48:06;16.80;9.40
40952;DHT22;26682;51.660;19.338;2023-03-23T14:50:52;16.70;1.00
40952;DHT22;26682;51.660;19.338;2023-03-23T14:53:39;16.70;1.00
40952;DHT22;26682;51.660;19.338;2023-03-23T14:56:22;16.70;1.00
40952;DHT22;26682;51.660;19.338;2023-03-23T14:59:10;16.60;1.00
40952;DHT22;26682;51.660;19.338;2023-03-23T15:01:51;16.60;1.00
40952;DHT22;26682;51.660;19.338;2023-03-23T15:04:33;16.60;1.00
40952;DHT22;26682;51.660;19.338;2023-03-23T15:07:15;16.50;1.00
40952;DHT22;26682;51.660;19.338;2023-03-23T15:09:59;16.50;1.00
40952;DHT22;26682;51.660;19.338;2023-03-23T15:12:44;16.50;1.00
40952;DHT22;26682;51.660;19.338;2023-03-23T15:15:28;16.50;1.00
40952;DHT22;26682;51.660;19.338;2023-03-23T15:18:34;16.50;1.00
40952;DHT22;26682;51.660;19.338;2023-03-23T15:21:27;16.50;1.00
40952;DHT22;26682;51.660;19.338;2023-03-23T15:24:38;16.50;1.00
40952;DHT22;26682;51.660;19.338;2023-03-23T15:27:32;16.50;1.00
40952;DHT22;26682;51.660;19.338;2023-03-23T15:33:11;16.40;1.00
40952;DHT22;26682;51.660;19.338;2023-03-23T15:35:55;16.30;1.00
40952;DHT22;26682;51.660;19.338;2023-03-23T15:38:37;16.30;1.00
40952;DHT22;26682;51.660;19.338;2023-03-23T15:41:27;16.30;1.00
40952;DHT22;26682;51.660;19.338;2023-03-23T15:44:21;16.30;1.00
40952;DHT22;26682;51.660;19.338;2023-03-23T15:47:14;16.30;1.00
40952;DHT22;26682;51.660;19.338;2023-03-23T15:52:52;16.20;1.00
40952;DHT22;26682;51.660;19.338;2023-03-23T15:55:38;16.10;1.00
40952;DHT22;26682;51.660;19.338;2023-03-23T15:58:20;16.10;1.00
40952;DHT22;26682;51.660;19.338;2023-03-23T16:01:06;16.00;1.00
40952;DHT22;26682;51.660;19.338;2023-03-23T16:04:05;16.00;1.00
40952;DHT22;26682;51.660;19.338;2023-03-23T16:06:50;15.90;1.00
40952;DHT22;26682;51.660;19.338;2023-03-23T16:09:33;15.70;99.90
40952;DHT22;26682;51.660;19.338;2023-03-23T16:12:15;15.70;99.90
40952;DHT22;26682;51.660;19.338;2023-03-23T16:14:58;15.60;99.90
40952;DHT22;26682;51.660;19.338;2023-03-23T16:17:41;15.50;99.90
40952;DHT22;26682;51.660;19.338;2023-03-23T16:20:24;15.40;99.90
40952;DHT22;26682;51.660;19.338;2023-03-23T16:23:07;15.30;99.90
40952;DHT22;26682;51.660;19.338;2023-03-23T16:25:50;15.20;99.90
40952;DHT22;26682;51.660;19.338;2023-03-23T16:28:33;15.00;99.90
40952;DHT22;26682;51.660;19.338;2023-03-23T16:31:15;15.00;99.90
40952;DHT22;26682;51.660;19.338;2023-03-23T16:33:58;14.80;99.90
40952;DHT22;26682;51.660;19.338;2023-03-23T16:36:40;14.70;99.90
40952;DHT22;26682;51.660;19.338;2023-03-23T16:39:23;14.70;99.90
40952;DHT22;26682;51.660;19.338;2023-03-23T16:42:05;14.60;99.90
40952;DHT22;26682;51.660;19.338;2023-03-23T16:44:48;14.50;99.90
40952;DHT22;26682;51.660;19.338;2023-03-23T16:47:31;14.50;99.90
40952;DHT22;26682;51.660;19.338;2023-03-23T16:50:15;14.40;99.90
40952;DHT22;26682;51.660;19.338;2023-03-23T16:52:58;14.30;99.90
40952;DHT22;26682;51.660;19.338;2023-03-23T16:55:41;14.20;99.90
40952;DHT22;26682;51.660;19.338;2023-03-23T16:58:28;14.20;99.90
40952;DHT22;26682;51.660;19.338;2023-03-23T17:01:11;14.10;99.90
40952;DHT22;26682;51.660;19.338;2023-03-23T17:03:54;14.10;99.90
40952;DHT22;26682;51.660;19.338;2023-03-23T17:06:37;14.00;99.90
40952;DHT22;26682;51.660;19.338;2023-03-23T17:09:19;13.90;99.90
40952;DHT22;26682;51.660;19.338;2023-03-23T17:12:02;13.90;99.90
40952;DHT22;26682;51.660;19.338;2023-03-23T17:14:45;14.00;99.90
40952;DHT22;26682;51.660;19.338;2023-03-23T17:17:28;13.90;99.90
40952;DHT22;26682;51.660;19.338;2023-03-23T17:20:11;13.90;99.90
40952;DHT22;26682;51.660;19.338;2023-03-23T17:22:54;14.00;99.90
40952;DHT22;26682;51.660;19.338;2023-03-23T17:25:36;14.00;99.90
40952;DHT22;26682;51.660;19.338;2023-03-23T17:28:19;14.00;99.90
40952;DHT22;26682;51.660;19.338;2023-03-23T17:31:02;14.00;99.90
40952;DHT22;26682;51.660;19.338;2023-03-23T17:33:45;13.90;99.90
40952;DHT22;26682;51.660;19.338;2023-03-23T17:36:27;13.90;99.90
40952;DHT22;26682;51.660;19.338;2023-03-23T17:39:10;13.90;99.90
40952;DHT22;26682;51.660;19.338;2023-03-23T17:41:52;13.80;99.90
40952;DHT22;26682;51.660;19.338;2023-03-23T17:44:34;13.80;99.90
40952;DHT22;26682;51.660;19.338;2023-03-23T17:47:17;13.80;1.00
40952;DHT22;26682;51.660;19.338;2023-03-23T17:49:59;13.80;99.90
40952;DHT22;26682;51.660;19.338;2023-03-23T17:52:55;13.90;99.90
40952;DHT22;26682;51.660;19.338;2023-03-23T17:55:39;13.80;1.00
40952;DHT22;26682;51.660;19.338;2023-03-23T17:58:24;13.80;99.90
40952;DHT22;26682;51.660;19.338;2023-03-23T18:01:08;13.80;99.90
40952;DHT22;26682;51.660;19.338;2023-03-23T18:03:52;13.80;99.90
40952;DHT22;26682;51.660;19.338;2023-03-23T18:06:35;13.80;99.90
40952;DHT22;26682;51.660;19.338;2023-03-23T18:09:18;13.80;99.90
40952;DHT22;26682;51.660;19.338;2023-03-23T18:12:01;13.80;99.90
40952;DHT22;26682;51.660;19.338;2023-03-23T18:14:44;13.80;99.90
40952;DHT22;26682;51.660;19.338;2023-03-23T18:17:28;13.80;99.90
40952;DHT22;26682;51.660;19.338;2023-03-23T18:20:10;13.80;99.90
40952;DHT22;26682;51.660;19.338;2023-03-23T18:22:53;13.80;99.90
40952;DHT22;26682;51.660;19.338;2023-03-23T18:25:37;13.80;99.90
40952;DHT22;26682;51.660;19.338;2023-03-23T18:28:21;13.90;99.90
40952;DHT22;26682;51.660;19.338;2023-03-23T18:31:09;13.80;99.90
40952;DHT22;26682;51.660;19.338;2023-03-23T18:33:52;13.80;99.90
40952;DHT22;26682;51.660;19.338;2023-03-23T18:36:36;13.90;99.90
40952;DHT22;26682;51.660;19.338;2023-03-23T18:39:19;13.90;99.90
40952;DHT22;26682;51.660;19.338;2023-03-23T18:42:01;13.90;99.90
40952;DHT22;26682;51.660;19.338;2023-03-23T18:44:44;14.00;99.90
40952;DHT22;26682;51.660;19.338;2023-03-23T18:47:27;14.00;99.90
40952;DHT22;26682;51.660;19.338;2023-03-23T18:50:10;14.00;99.90
40952;DHT22;26682;51.660;19.338;2023-03-23T18:52:53;14.00;99.90
40952;DHT22;26682;51.660;19.338;2023-03-23T18:55:36;14.10;99.90
40952;DHT22;26682;51.660;19.338;2023-03-23T18:58:19;14.10;99.90
40952;DHT22;26682;51.660;19.338;2023-03-23T19:01:05;14.10;1.00
40952;DHT22;26682;51.660;19.338;2023-03-23T19:03:48;14.00;1.00
40952;DHT22;26682;51.660;19.338;2023-03-23T19:06:32;14.00;1.00
40952;DHT22;26682;51.660;19.338;2023-03-23T19:09:16;13.90;1.00